Time;durP1;ratioP1;P1;durP2;ratioP2;P2;SDS_P1;SDS_P2;PMS_P1;PMS_P2;Temp;Humidity;BMP_temperature;BMP_pressure;BME280_temperature;BME280_humidity;BME280_pressure;Samples;Min_cycle;Max_cycle;Signal;HPM_P1;HPM_P2
2022/05/30 00:00:57;;;;;;;3.13;1.77;;;12.60;99.90;;;;;;4996166;28;20448;-69
2022/05/30 00:03:23;;;;;;;1.60;1.37;;;12.60;99.90;;;;;;5001348;28;20828;-68
2022/05/30 00:05:51;;;;;;;3.83;2.00;;;12.40;99.90;;;;;;4996227;28;20518;-68
2022/05/30 00:08:20;;;;;;;1.40;1.00;;;12.50;99.90;;;;;;5004932;28;20498;-68
2022/05/30 00:10:46;;;;;;;1.60;1.20;;;12.50;99.90;;;;;;4999622;28;20466;-68
2022/05/30 00:13:14;;;;;;;3.90;1.50;;;12.40;99.90;;;;;;5000801;28;20472;-69
2022/05/30 00:15:41;;;;;;;8.57;2.20;;;12.40;99.90;;;;;;4994342;28;20939;-70
2022/05/30 00:18:09;;;;;;;3.10;1.50;;;12.30;99.90;;;;;;5008688;28;21019;-69
2022/05/30 00:20:36;;;;;;;8.00;1.63;;;12.30;99.90;;;;;;5004003;28;20876;-68
2022/05/30 00:23:06;;;;;;;8.53;1.57;;;12.30;99.90;;;;;;5001106;28;20747;-69
2022/05/30 00:25:33;;;;;;;1.67;1.20;;;12.20;99.90;;;;;;5004319;28;20535;-69
2022/05/30 00:27:59;;;;;;;2.63;1.77;;;12.30;99.90;;;;;;5003785;28;20494;-68
2022/05/30 00:30:26;;;;;;;2.90;1.80;;;12.30;99.90;;;;;;5002011;28;20621;-69
2022/05/30 00:32:53;;;;;;;2.93;1.63;;;12.30;99.90;;;;;;5001631;28;20479;-69
2022/05/30 00:35:19;;;;;;;2.13;1.93;;;12.30;99.90;;;;;;5004696;28;20530;-69
2022/05/30 00:37:46;;;;;;;7.17;2.40;;;12.30;99.90;;;;;;5003703;28;20460;-68
2022/05/30 00:40:14;;;;;;;1.60;1.50;;;12.30;99.90;;;;;;5001744;28;20542;-69
2022/05/30 00:42:40;;;;;;;4.53;2.00;;;12.20;99.90;;;;;;5008193;28;20439;-68
2022/05/30 00:45:09;;;;;;;6.50;1.87;;;12.10;99.90;;;;;;5004003;28;20518;-69
2022/05/30 00:47:36;;;;;;;5.63;1.17;;;11.90;99.90;;;;;;5001489;28;20949;-67
2022/05/30 00:50:03;;;;;;;6.20;1.77;;;11.80;99.90;;;;;;5002689;28;20507;-67
2022/05/30 00:52:34;;;;;;;7.23;1.77;;;11.80;99.90;;;;;;5006087;28;20512;-68
2022/05/30 00:55:06;;;;;;;3.77;1.53;;;11.80;99.90;;;;;;5005344;28;20467;-68
2022/05/30 00:57:36;;;;;;;3.67;2.03;;;12.00;99.90;;;;;;5010311;28;20469;-70
2022/05/30 01:00:08;;;;;;;3.23;1.47;;;12.10;99.90;;;;;;4998294;28;20514;-68
2022/05/30 01:02:36;;;;;;;6.87;2.50;;;12.10;99.90;;;;;;5006095;28;20459;-67
2022/05/30 01:07:49;;;;;;;3.50;1.40;;;12.20;99.90;;;;;;5003770;28;21038;-67
2022/05/30 01:10:19;;;;;;;2.63;1.73;;;12.00;99.90;;;;;;4999546;28;20545;-68
2022/05/30 01:12:52;;;;;;;1.80;1.67;;;11.90;99.90;;;;;;5005437;28;20483;-68
2022/05/30 01:15:20;;;;;;;5.40;1.60;;;11.90;99.90;;;;;;5006435;28;20489;-67
2022/05/30 01:17:56;;;;;;;2.27;1.37;;;11.80;99.90;;;;;;4994648;28;20541;-67
2022/05/30 01:20:41;;;;;;;5.80;1.80;;;11.80;99.90;;;;;;5004689;28;20479;-68
2022/05/30 01:23:41;;;;;;;4.60;1.70;;;12.00;99.90;;;;;;5007518;28;20455;-68
2022/05/30 01:26:28;;;;;;;2.90;1.27;;;12.20;99.90;;;;;;4985724;28;20524;-69
2022/05/30 01:29:01;;;;;;;5.50;1.80;;;12.10;99.90;;;;;;5004178;28;20904;-68
2022/05/30 01:31:28;;;;;;;6.23;1.73;;;12.20;99.90;;;;;;5002230;28;20919;-67
2022/05/30 01:33:55;;;;;;;3.03;1.73;;;12.30;99.90;;;;;;5001689;28;20725;-67
2022/05/30 01:36:23;;;;;;;2.00;1.50;;;12.40;99.90;;;;;;4999275;28;20460;-68
2022/05/30 01:38:50;;;;;;;1.50;1.00;;;12.40;99.90;;;;;;5001350;28;20546;-68
2022/05/30 01:41:17;;;;;;;5.97;1.97;;;12.30;99.90;;;;;;5000288;28;20430;-68
2022/05/30 01:43:45;;;;;;;3.47;1.73;;;12.30;99.90;;;;;;4997519;28;20463;-67
2022/05/30 01:46:17;;;;;;;1.80;1.43;;;12.30;99.90;;;;;;5000179;28;20441;-67
2022/05/30 01:48:45;;;;;;;2.90;1.63;;;12.20;99.90;;;;;;4997819;28;20858;-67
2022/05/30 01:51:12;;;;;;;2.93;1.63;;;12.00;99.90;;;;;;4998300;28;20965;-68
2022/05/30 01:53:39;;;;;;;4.00;1.50;;;12.00;99.90;;;;;;4988519;28;20514;-68
2022/05/30 01:56:06;;;;;;;3.60;1.43;;;11.90;99.90;;;;;;4995336;28;20476;-68
2022/05/30 01:58:33;;;;;;;5.03;1.60;;;11.90;99.90;;;;;;4999291;28;21397;-68
2022/05/30 02:01:00;;;;;;;2.57;1.60;;;12.10;99.90;;;;;;4991575;28;20468;-68
2022/05/30 02:03:30;;;;;;;2.80;1.37;;;12.10;99.90;;;;;;5001899;28;20457;-69
2022/05/30 02:05:57;;;;;;;1.70;1.40;;;12.10;99.90;;;;;;4996359;28;20476;-68
2022/05/30 02:08:24;;;;;;;11.50;2.67;;;12.10;99.90;;;;;;5000779;28;20461;-68
2022/05/30 02:10:50;;;;;;;2.23;1.40;;;11.80;99.90;;;;;;4994466;28;20924;-67
2022/05/30 02:13:17;;;;;;;4.90;1.60;;;11.80;99.90;;;;;;5002765;28;20618;-68
2022/05/30 02:18:29;;;;;;;14.50;2.20;;;11.90;99.90;;;;;;5003421;28;20535;-68
2022/05/30 02:20:56;;;;;;;6.80;2.17;;;11.90;99.90;;;;;;4997081;28;20965;-67
2022/05/30 02:23:23;;;;;;;3.00;1.33;;;11.90;99.90;;;;;;5002161;28;20522;-67
2022/05/30 02:25:49;;;;;;;4.17;1.60;;;11.90;99.90;;;;;;4995313;28;20500;-68
2022/05/30 02:28:16;;;;;;;11.23;1.97;;;11.80;99.90;;;;;;5006029;28;20476;-68
2022/05/30 02:30:43;;;;;;;3.53;1.50;;;11.80;99.90;;;;;;5000196;28;20888;-68
2022/05/30 02:38:39;;;;;;;2.80;1.40;;;11.50;99.90;;;;;;4995083;28;20546;-67
2022/05/30 02:41:05;;;;;;;10.30;2.50;;;11.50;99.90;;;;;;4992127;28;20549;-68
2022/05/30 02:43:32;;;;;;;9.13;1.63;;;11.60;99.90;;;;;;5003175;28;20463;-68
2022/05/30 02:45:59;;;;;;;4.47;1.57;;;11.50;99.90;;;;;;5004953;28;20536;-68
2022/05/30 02:48:25;;;;;;;1.90;1.60;;;11.60;99.90;;;;;;4993552;28;20459;-68
2022/05/30 02:50:52;;;;;;;9.03;2.00;;;11.60;99.90;;;;;;4999798;28;20618;-68
2022/05/30 02:53:20;;;;;;;8.40;2.10;;;11.60;99.90;;;;;;4998557;28;20505;-68
2022/05/30 02:55:47;;;;;;;6.13;2.03;;;11.50;99.90;;;;;;4995890;28;20578;-68
2022/05/30 02:58:13;;;;;;;5.13;1.40;;;11.50;99.90;;;;;;4997323;28;20877;-68
2022/05/30 03:00:40;;;;;;;2.67;1.70;;;11.50;99.90;;;;;;5005431;23;20595;-73
2022/05/30 03:03:07;;;;;;;5.83;1.70;;;11.60;99.90;;;;;;4992009;28;20521;-72
2022/05/30 03:05:33;;;;;;;4.63;2.07;;;11.50;99.90;;;;;;4990445;28;20873;-73
2022/05/30 03:08:03;;;;;;;2.17;1.97;;;11.50;99.90;;;;;;4997560;28;20511;-72
2022/05/30 03:10:31;;;;;;;6.17;1.60;;;11.50;99.90;;;;;;4977447;28;20491;-71
2022/05/30 03:12:58;;;;;;;2.13;1.63;;;11.30;99.90;;;;;;4975472;28;20630;-71
2022/05/30 03:15:25;;;;;;;2.70;1.50;;;11.40;99.90;;;;;;4986633;28;20529;-71
2022/05/30 03:17:52;;;;;;;2.47;1.50;;;11.40;99.90;;;;;;4965324;28;20567;-71
2022/05/30 03:20:19;;;;;;;2.80;1.53;;;11.40;99.90;;;;;;4971431;28;20462;-71
2022/05/30 03:22:47;;;;;;;1.70;1.50;;;11.60;99.90;;;;;;4969655;28;20436;-71
2022/05/30 03:25:14;;;;;;;1.93;1.57;;;11.60;99.90;;;;;;4968410;28;20460;-72
2022/05/30 03:27:42;;;;;;;4.40;1.60;;;11.50;99.90;;;;;;4966463;28;20506;-73
2022/05/30 03:30:11;;;;;;;3.00;1.63;;;11.60;99.90;;;;;;4980588;28;20513;-72
2022/05/30 03:32:38;;;;;;;3.80;1.77;;;11.50;99.90;;;;;;4969022;28;20461;-73
2022/05/30 03:35:05;;;;;;;5.53;1.83;;;11.40;99.90;;;;;;4976287;28;20465;-71
2022/05/30 03:37:32;;;;;;;3.97;1.47;;;11.40;99.90;;;;;;4979105;28;20462;-72
2022/05/30 03:39:59;;;;;;;2.40;1.97;;;11.50;99.90;;;;;;4978549;28;20459;-73
2022/05/30 03:42:27;;;;;;;6.10;2.80;;;11.50;99.90;;;;;;4986543;28;20954;-72
2022/05/30 03:44:55;;;;;;;2.93;1.77;;;11.50;99.90;;;;;;4973999;28;20539;-72
2022/05/30 03:47:21;;;;;;;3.17;1.73;;;11.40;99.90;;;;;;4968851;28;20470;-72
2022/05/30 03:49:48;;;;;;;1.90;1.57;;;11.40;99.90;;;;;;4960270;28;20548;-73
2022/05/30 03:52:15;;;;;;;2.50;1.73;;;11.60;99.90;;;;;;4968647;28;20525;-72
2022/05/30 03:54:42;;;;;;;1.63;1.47;;;11.60;99.90;;;;;;4972750;28;20810;-72
2022/05/30 03:57:08;;;;;;;1.40;1.30;;;11.60;99.90;;;;;;4973581;28;20500;-73
2022/05/30 03:59:35;;;;;;;6.20;1.50;;;11.60;99.90;;;;;;4971933;28;20463;-72
2022/05/30 04:02:04;;;;;;;2.37;1.50;;;11.60;99.90;;;;;;4972934;28;20552;-72
2022/05/30 04:04:31;;;;;;;6.00;2.30;;;11.60;99.90;;;;;;4969672;28;20444;-72
2022/05/30 04:06:57;;;;;;;3.27;2.13;;;11.70;99.90;;;;;;4961251;28;20905;-72
2022/05/30 04:09:24;;;;;;;2.90;2.10;;;11.70;99.90;;;;;;4967845;28;20557;-72
2022/05/30 04:11:51;;;;;;;3.03;1.70;;;11.70;99.90;;;;;;4969561;28;21068;-72
2022/05/30 04:14:17;;;;;;;3.53;1.33;;;11.50;99.90;;;;;;4968646;28;20440;-73
2022/05/30 04:16:44;;;;;;;10.90;2.33;;;11.50;99.90;;;;;;4968595;28;20488;-71
2022/05/30 04:19:12;;;;;;;2.27;1.60;;;11.50;99.90;;;;;;4973888;28;20472;-72
2022/05/30 04:21:39;;;;;;;4.90;1.50;;;11.50;99.90;;;;;;4962258;28;20480;-73
2022/05/30 04:24:07;;;;;;;2.53;1.83;;;11.50;99.90;;;;;;4975785;28;20472;-71
2022/05/30 04:26:33;;;;;;;2.83;1.80;;;11.70;99.90;;;;;;4980752;28;20519;-73
2022/05/30 04:29:00;;;;;;;7.47;1.93;;;11.70;99.90;;;;;;4975125;28;20507;-72
2022/05/30 04:31:27;;;;;;;5.53;1.87;;;11.80;99.90;;;;;;4981637;28;20472;-71
2022/05/30 04:33:54;;;;;;;3.90;2.23;;;11.80;99.90;;;;;;4970849;28;20549;-71
2022/05/30 04:36:21;;;;;;;7.00;1.73;;;11.90;99.90;;;;;;4971707;28;20474;-73
2022/05/30 04:38:48;;;;;;;1.47;1.17;;;12.00;99.90;;;;;;4977870;28;20461;-73
2022/05/30 04:41:15;;;;;;;4.10;3.60;;;11.90;99.90;;;;;;4966841;28;21356;-72
2022/05/30 04:43:41;;;;;;;2.27;1.80;;;11.80;99.90;;;;;;4974543;28;20461;-74
2022/05/30 04:46:12;;;;;;;15.03;2.20;;;11.80;99.90;;;;;;4978251;28;20467;-72
2022/05/30 04:48:39;;;;;;;7.53;2.23;;;11.70;99.90;;;;;;4974149;28;20972;-72
2022/05/30 04:51:06;;;;;;;2.80;1.60;;;11.70;99.90;;;;;;4975134;28;20565;-72
2022/05/30 04:53:34;;;;;;;6.83;2.93;;;11.60;99.90;;;;;;4979477;28;20639;-72
2022/05/30 04:56:02;;;;;;;6.63;1.70;;;11.60;99.90;;;;;;4980480;28;20473;-72
2022/05/30 04:58:29;;;;;;;2.77;1.70;;;11.60;99.90;;;;;;4977197;28;20465;-73
2022/05/30 05:00:57;;;;;;;7.03;2.47;;;11.60;99.90;;;;;;4974705;28;20480;-71
2022/05/30 05:03:25;;;;;;;2.27;1.50;;;11.60;99.90;;;;;;4981531;28;20440;-72
2022/05/30 05:05:51;;;;;;;6.03;1.90;;;11.70;99.90;;;;;;4980494;28;20505;-72
2022/05/30 05:08:33;;;;;;;4.73;1.67;;;11.80;99.90;;;;;;4974912;28;20509;-73
2022/05/30 05:11:13;;;;;;;2.60;2.03;;;11.70;99.90;;;;;;4981363;28;20485;-72
2022/05/30 05:13:41;;;;;;;2.70;1.80;;;11.90;99.90;;;;;;4982438;28;20881;-72
2022/05/30 05:16:08;;;;;;;1.90;1.33;;;11.90;99.90;;;;;;4984423;28;20512;-72
2022/05/30 05:18:35;;;;;;;8.20;1.80;;;11.90;99.90;;;;;;4979683;28;20473;-73
2022/05/30 05:21:01;;;;;;;6.73;2.20;;;11.90;99.90;;;;;;4979117;28;20496;-73
2022/05/30 05:23:28;;;;;;;11.13;1.97;;;12.00;99.90;;;;;;4982406;28;20465;-73
2022/05/30 05:25:55;;;;;;;3.17;1.67;;;12.00;99.90;;;;;;4979548;28;20728;-73
2022/05/30 05:28:23;;;;;;;2.43;1.67;;;12.00;99.90;;;;;;4979206;28;20514;-73
2022/05/30 05:30:49;;;;;;;2.23;1.87;;;12.10;99.90;;;;;;4979257;28;20458;-72
2022/05/30 05:33:18;;;;;;;2.90;1.70;;;12.10;99.90;;;;;;4977735;28;20489;-72
2022/05/30 05:35:46;;;;;;;6.03;1.87;;;12.10;99.90;;;;;;4982299;28;20439;-73
2022/05/30 05:38:14;;;;;;;4.80;2.17;;;12.10;99.90;;;;;;4982747;28;20466;-74
2022/05/30 05:40:41;;;;;;;10.20;2.03;;;12.10;99.90;;;;;;4983774;28;20515;-72
2022/05/30 05:43:09;;;;;;;15.20;3.37;;;12.10;99.90;;;;;;4981839;28;20465;-72
2022/05/30 05:45:38;;;;;;;3.60;1.63;;;12.20;99.90;;;;;;4978958;28;20440;-72
2022/05/30 05:48:05;;;;;;;12.90;2.50;;;12.50;99.90;;;;;;4981161;28;20520;-73
2022/05/30 05:50:32;;;;;;;4.57;1.90;;;12.50;99.90;;;;;;4985547;28;20916;-72
2022/05/30 05:52:58;;;;;;;2.87;1.40;;;12.60;99.90;;;;;;4978892;28;21226;-71
2022/05/30 05:55:26;;;;;;;1.70;1.40;;;12.50;99.90;;;;;;4983311;28;20470;-73
2022/05/30 05:57:53;;;;;;;2.20;1.50;;;12.50;99.90;;;;;;4986851;28;20463;-71
2022/05/30 06:00:20;;;;;;;4.40;3.90;;;12.80;99.90;;;;;;4975166;28;21022;-71
2022/05/30 06:02:48;;;;;;;4.03;1.73;;;12.70;99.90;;;;;;4981590;28;20969;-71
2022/05/30 06:05:15;;;;;;;1.70;1.37;;;12.70;99.90;;;;;;4981896;28;20440;-72
2022/05/30 06:07:43;;;;;;;3.20;2.00;;;12.70;99.90;;;;;;4978485;28;21226;-71
2022/05/30 06:10:12;;;;;;;1.73;1.50;;;12.70;99.90;;;;;;4982783;28;20516;-72
2022/05/30 06:12:42;;;;;;;7.20;1.77;;;12.90;99.90;;;;;;4976173;28;20536;-73
2022/05/30 06:15:11;;;;;;;7.43;1.40;;;13.10;99.90;;;;;;4981397;28;20497;-72
2022/05/30 06:17:39;;;;;;;5.40;1.67;;;13.20;99.90;;;;;;4980272;28;20523;-71
2022/05/30 06:20:09;;;;;;;4.33;2.53;;;13.30;99.90;;;;;;4979412;28;21059;-71
2022/05/30 06:22:36;;;;;;;7.20;2.57;;;13.30;99.90;;;;;;4977473;28;20441;-71
2022/05/30 06:25:04;;;;;;;4.63;1.33;;;13.20;99.90;;;;;;4980929;28;20465;-72
2022/05/30 06:27:30;;;;;;;3.63;1.93;;;13.50;99.90;;;;;;4976752;28;20900;-71
2022/05/30 06:29:57;;;;;;;8.73;2.50;;;13.70;99.90;;;;;;4973425;28;21038;-71
2022/05/30 06:32:24;;;;;;;3.30;1.60;;;13.90;99.90;;;;;;4985335;28;20531;-71
2022/05/30 06:34:51;;;;;;;8.43;2.30;;;14.20;99.90;;;;;;4975950;28;20467;-72
2022/05/30 06:37:19;;;;;;;2.63;2.13;;;14.40;99.90;;;;;;4981035;28;20548;-73
2022/05/30 06:39:46;;;;;;;3.27;1.60;;;14.60;99.90;;;;;;4975593;28;20535;-71
2022/05/30 06:42:14;;;;;;;2.30;1.60;;;15.00;99.90;;;;;;4976041;28;21042;-71
2022/05/30 06:44:41;;;;;;;2.73;1.50;;;15.10;99.90;;;;;;4978419;28;20466;-71
2022/05/30 06:47:08;;;;;;;4.27;2.10;;;15.60;99.90;;;;;;4976227;28;20696;-72
2022/05/30 06:49:35;;;;;;;4.67;1.30;;;16.30;99.90;;;;;;4983071;28;20479;-72
2022/05/30 06:52:02;;;;;;;2.97;1.70;;;16.80;99.90;;;;;;4984251;28;20964;-72
2022/05/30 06:54:31;;;;;;;5.03;1.67;;;16.90;99.90;;;;;;4975987;28;20856;-73
2022/05/30 06:59:42;;;;;;;4.17;1.53;;;16.60;99.90;;;;;;4978523;28;20612;-72
2022/05/30 07:02:08;;;;;;;4.67;1.20;;;17.00;99.90;;;;;;4979717;28;20466;-72
2022/05/30 07:04:36;;;;;;;4.50;1.43;;;16.70;99.90;;;;;;4975633;28;20585;-72
2022/05/30 07:07:04;;;;;;;2.50;1.30;;;16.40;99.90;;;;;;4980426;28;20477;-72
2022/05/30 07:09:33;;;;;;;2.23;1.50;;;16.10;99.90;;;;;;4978139;28;20516;-71
2022/05/30 07:11:59;;;;;;;3.73;1.30;;;15.60;99.90;;;;;;4981216;28;20469;-72
2022/05/30 07:14:26;;;;;;;4.50;1.60;;;15.50;99.90;;;;;;4979504;28;20451;-72
2022/05/30 07:16:53;;;;;;;2.50;1.20;;;15.60;99.90;;;;;;4977962;28;20539;-72
2022/05/30 07:19:20;;;;;;;3.03;1.53;;;16.00;99.90;;;;;;4978373;28;20543;-71
2022/05/30 07:21:46;;;;;;;5.40;1.70;;;16.20;99.90;;;;;;4970932;28;20883;-72
2022/05/30 07:24:13;;;;;;;2.13;1.50;;;16.10;99.90;;;;;;4976661;28;20498;-73
2022/05/30 07:26:41;;;;;;;2.30;1.10;;;16.00;99.90;;;;;;4977540;28;20521;-73
2022/05/30 07:29:09;;;;;;;3.90;2.47;;;15.50;99.90;;;;;;4973950;28;20470;-72
2022/05/30 07:31:35;;;;;;;1.67;1.33;;;15.70;99.90;;;;;;4975820;28;20564;-72
2022/05/30 07:34:02;;;;;;;3.00;1.80;;;15.90;99.90;;;;;;4979619;28;20517;-73
2022/05/30 07:36:32;;;;;;;11.80;7.40;;;16.20;99.90;;;;;;4980393;28;20603;-71
2022/05/30 07:38:58;;;;;;;3.00;2.20;;;16.90;99.90;;;;;;4974374;28;20481;-71
2022/05/30 07:41:27;;;;;;;4.77;2.20;;;16.80;99.90;;;;;;4976796;28;20811;-72
2022/05/30 07:43:55;;;;;;;2.70;1.57;;;17.30;99.90;;;;;;4978658;28;20836;-71
2022/05/30 07:46:22;;;;;;;2.60;1.40;;;16.80;99.90;;;;;;4977843;28;20463;-71
2022/05/30 07:48:49;;;;;;;7.97;1.30;;;16.90;99.90;;;;;;4979902;28;20462;-72
2022/05/30 07:51:16;;;;;;;6.93;1.37;;;17.70;99.90;;;;;;4978801;28;20481;-72
2022/05/30 07:53:45;;;;;;;3.23;1.20;;;17.70;99.90;;;;;;4983446;28;20468;-72
2022/05/30 07:56:13;;;;;;;2.07;1.10;;;17.90;99.90;;;;;;4977980;28;20936;-72
2022/05/30 07:58:40;;;;;;;2.70;1.43;;;18.80;99.90;;;;;;4974726;28;21124;-73
2022/05/30 08:01:13;;;;;;;7.87;3.03;;;18.90;99.90;;;;;;4976971;28;21038;-72
2022/05/30 08:03:40;;;;;;;1.77;1.17;;;18.30;99.90;;;;;;4980989;28;20532;-72
2022/05/30 08:06:09;;;;;;;3.90;1.73;;;18.10;99.90;;;;;;4974656;28;20761;-72
2022/05/30 08:08:51;;;;;;;3.00;1.33;;;18.30;99.90;;;;;;5115877;27;20598;-72
2022/05/30 08:11:18;;;;;;;2.33;1.30;;;17.80;99.90;;;;;;5096623;28;20481;-73
2022/05/30 08:13:46;;;;;;;4.73;1.67;;;17.60;99.90;;;;;;5099451;28;20456;-72
2022/05/30 08:16:13;;;;;;;2.40;0.87;;;18.10;99.90;;;;;;5094891;27;20837;-72
2022/05/30 08:18:40;;;;;;;3.87;1.30;;;18.70;99.90;;;;;;5095820;28;20450;-72
2022/05/30 08:21:07;;;;;;;1.20;0.90;;;18.60;99.70;;;;;;5092838;28;20553;-72
2022/05/30 08:23:34;;;;;;;5.07;1.67;;;18.10;98.70;;;;;;5097164;28;20980;-71
2022/05/30 08:26:02;;;;;;;2.17;1.40;;;18.00;99.90;;;;;;5094926;28;20458;-72
2022/05/30 08:28:29;;;;;;;3.33;1.10;;;17.60;99.00;;;;;;5095498;28;20482;-72
2022/05/30 08:30:56;;;;;;;5.07;1.87;;;18.20;99.90;;;;;;5096539;27;20479;-72
2022/05/30 08:33:23;;;;;;;2.87;1.53;;;19.00;98.80;;;;;;5094821;28;20453;-73
2022/05/30 08:36:01;;;;;;;1.93;1.40;;;19.50;96.40;;;;;;5093259;28;21142;-73
2022/05/30 08:38:33;;;;;;;5.40;1.47;;;20.60;95.70;;;;;;5092602;28;20452;-72
2022/05/30 08:43:49;;;;;;;3.97;1.87;;;21.60;92.60;;;;;;5097572;28;20460;-72
2022/05/30 08:46:36;;;;;;;1.70;1.20;;;21.70;91.50;;;;;;5095989;28;20464;-73
2022/05/30 08:49:14;;;;;;;1.80;1.33;;;21.50;88.50;;;;;;5098300;28;20542;-72
2022/05/30 08:52:09;;;;;;;2.13;1.37;;;20.80;87.20;;;;;;5093927;28;20471;-73
2022/05/30 08:54:43;;;;;;;2.43;1.33;;;20.20;85.50;;;;;;5097816;27;20495;-72
2022/05/30 08:57:17;;;;;;;1.50;1.40;;;19.30;88.00;;;;;;5096390;28;20452;-71
2022/05/30 08:59:57;;;;;;;3.97;1.10;;;18.80;86.40;;;;;;5095126;22;20461;-67
2022/05/30 09:02:30;;;;;;;3.00;1.20;;;18.40;90.20;;;;;;5040545;28;20459;-68
2022/05/30 09:05:01;;;;;;;2.03;1.23;;;18.60;90.80;;;;;;5039710;28;20471;-68
2022/05/30 09:07:32;;;;;;;1.80;0.90;;;18.50;90.50;;;;;;5040927;28;20960;-68
2022/05/30 09:10:05;;;;;;;1.93;1.40;;;18.20;90.90;;;;;;5040844;28;20836;-68
2022/05/30 09:12:39;;;;;;;3.93;1.87;;;18.00;89.80;;;;;;5042868;28;20456;-68
2022/05/30 09:15:11;;;;;;;1.60;1.43;;;18.10;91.30;;;;;;5037453;28;20487;-68
2022/05/30 09:17:43;;;;;;;3.07;1.50;;;17.90;92.70;;;;;;5039482;28;20529;-68
2022/05/30 09:20:12;;;;;;;2.90;2.03;;;17.60;93.90;;;;;;5032552;28;20525;-69
2022/05/30 09:22:40;;;;;;;7.50;3.80;;;17.40;95.60;;;;;;5031386;28;20538;-68
2022/05/30 09:27:57;;;;;;;1.77;1.27;;;17.30;95.50;;;;;;5025286;28;20558;-68
2022/05/30 09:30:32;;;;;;;1.60;1.50;;;17.10;95.20;;;;;;5026685;28;20885;-67
2022/05/30 09:33:14;;;;;;;2.67;1.40;;;16.90;95.60;;;;;;5028779;28;21200;-68
2022/05/30 09:35:43;;;;;;;2.30;1.20;;;17.30;95.10;;;;;;5026264;28;20622;-69
2022/05/30 09:38:12;;;;;;;5.10;2.07;;;17.60;93.80;;;;;;5024169;28;20449;-68
2022/05/30 09:40:41;;;;;;;2.27;1.20;;;17.50;94.00;;;;;;5019390;28;20678;-68
2022/05/30 09:43:14;;;;;;;3.53;2.03;;;17.50;94.00;;;;;;5029467;28;20464;-68
2022/05/30 09:45:40;;;;;;;2.57;1.80;;;17.60;93.80;;;;;;5025471;28;20912;-69
2022/05/30 09:48:12;;;;;;;1.80;1.40;;;17.60;95.80;;;;;;5029920;28;20480;-66
2022/05/30 09:50:43;;;;;;;2.07;1.87;;;17.80;95.50;;;;;;5025830;28;20905;-70
2022/05/30 09:53:11;;;;;;;1.90;1.60;;;17.80;95.40;;;;;;5027122;28;20465;-68
2022/05/30 09:55:44;;;;;;;1.40;1.20;;;17.90;95.00;;;;;;5029487;28;20460;-71
2022/05/30 09:58:12;;;;;;;6.70;2.23;;;17.80;93.70;;;;;;5028292;28;20941;-68
2022/05/30 10:00:48;;;;;;;2.73;2.00;;;17.80;93.30;;;;;;5022408;28;20496;-68
2022/05/30 10:03:28;;;;;;;3.30;2.07;;;17.60;93.40;;;;;;5025986;28;20492;-67
2022/05/30 10:06:12;;;;;;;2.43;1.30;;;17.40;94.00;;;;;;5026446;28;20460;-69
2022/05/30 10:08:39;;;;;;;1.60;1.37;;;17.30;94.20;;;;;;5028187;28;20491;-67
2022/05/30 10:11:07;;;;;;;4.53;1.80;;;17.20;94.50;;;;;;5028277;28;20571;-68
2022/05/30 10:13:37;;;;;;;2.47;1.50;;;17.00;95.50;;;;;;5029347;28;20460;-68
2022/05/30 10:16:07;;;;;;;1.50;1.20;;;16.90;96.60;;;;;;5030900;28;20464;-68
2022/05/30 10:18:36;;;;;;;2.53;1.70;;;17.10;96.50;;;;;;5024151;28;20460;-68
2022/05/30 10:21:20;;;;;;;2.67;1.53;;;17.00;95.80;;;;;;5026734;28;20496;-68
2022/05/30 10:30:05;;;;;;;4.83;1.70;;;16.70;97.70;;;;;;5023997;28;20521;-69
2022/05/30 10:32:41;;;;;;;3.80;1.80;;;17.20;96.50;;;;;;5025312;28;20877;-67
2022/05/30 10:35:17;;;;;;;2.77;1.50;;;17.20;94.90;;;;;;5023137;28;20464;-68
2022/05/30 10:38:04;;;;;;;2.20;1.30;;;17.00;94.50;;;;;;5024012;28;20479;-67
2022/05/30 10:40:41;;;;;;;2.60;1.47;;;17.00;94.20;;;;;;5020093;28;20500;-68
2022/05/30 10:43:12;;;;;;;2.73;1.73;;;16.80;94.70;;;;;;5025987;28;20479;-68
2022/05/30 10:45:46;;;;;;;6.83;1.37;;;16.70;94.80;;;;;;5024084;28;21038;-67
2022/05/30 10:48:35;;;;;;;1.33;1.10;;;16.80;95.10;;;;;;5025624;28;20488;-68
2022/05/30 10:51:06;;;;;;;4.23;1.37;;;16.80;94.50;;;;;;5023105;28;20469;-68
2022/05/30 10:53:41;;;;;;;4.20;1.30;;;16.60;96.20;;;;;;5023259;28;20461;-68
2022/05/30 10:56:17;;;;;;;3.67;1.40;;;16.70;96.70;;;;;;5020978;28;20514;-68
2022/05/30 10:58:49;;;;;;;2.10;1.33;;;16.80;95.40;;;;;;5028775;28;20474;-68
2022/05/30 11:01:29;;;;;;;3.27;1.30;;;16.90;95.50;;;;;;5020595;28;20549;-68
2022/05/30 11:04:11;;;;;;;1.50;1.23;;;17.00;95.40;;;;;;5026724;28;20503;-68
2022/05/30 11:06:41;;;;;;;3.20;1.33;;;16.80;94.90;;;;;;5028415;28;20456;-68
2022/05/30 11:09:18;;;;;;;3.77;1.50;;;16.60;95.60;;;;;;5026515;28;20489;-68
2022/05/30 11:11:49;;;;;;;4.23;1.47;;;16.50;95.60;;;;;;5019548;28;21770;-67
2022/05/30 11:14:24;;;;;;;1.83;1.00;;;16.80;95.30;;;;;;5022915;28;20465;-68
2022/05/30 11:16:58;;;;;;;2.57;1.60;;;16.80;94.00;;;;;;5025687;28;20510;-67
2022/05/30 11:19:31;;;;;;;2.37;1.10;;;16.90;93.60;;;;;;5025295;28;20507;-68
2022/05/30 11:22:05;;;;;;;2.10;1.50;;;16.70;94.30;;;;;;5018490;28;20871;-68
2022/05/30 11:24:33;;;;;;;2.67;1.10;;;16.80;94.50;;;;;;5023288;28;20535;-68
2022/05/30 11:27:14;;;;;;;9.70;1.13;;;16.90;94.90;;;;;;5024073;28;20468;-68
2022/05/30 11:29:59;;;;;;;2.30;1.20;;;17.50;92.90;;;;;;5019741;28;20483;-68
2022/05/30 11:32:49;;;;;;;2.63;1.20;;;17.70;92.30;;;;;;5020561;28;20498;-68
2022/05/30 11:35:31;;;;;;;1.60;1.00;;;17.40;92.60;;;;;;5022668;28;21150;-68
2022/05/30 11:38:30;;;;;;;2.30;2.10;;;17.50;92.80;;;;;;5029116;28;20453;-68
2022/05/30 11:41:07;;;;;;;1.60;1.00;;;18.00;92.10;;;;;;5024290;28;20536;-66
2022/05/30 11:43:50;;;;;;;6.57;1.33;;;18.10;90.50;;;;;;5026584;28;20460;-68
2022/05/30 11:46:25;;;;;;;1.80;1.33;;;18.00;91.00;;;;;;5028691;28;20836;-68
2022/05/30 11:48:59;;;;;;;1.20;1.10;;;18.10;91.80;;;;;;5023118;28;20473;-68
2022/05/30 11:51:39;;;;;;;2.20;1.13;;;18.50;90.50;;;;;;5024016;28;20476;-67
2022/05/30 11:54:36;;;;;;;2.03;1.70;;;18.20;90.50;;;;;;5027954;28;20463;-69
2022/05/30 11:57:13;;;;;;;3.20;1.30;;;18.30;91.70;;;;;;5020924;28;20491;-69
2022/05/30 12:00:04;;;;;;;1.50;1.20;;;18.20;87.70;;;;;;5016481;28;20452;-69
2022/05/30 12:02:57;;;;;;;2.93;1.40;;;18.30;86.40;;;;;;5023763;28;20484;-68
2022/05/30 12:06:09;;;;;;;3.50;1.30;;;18.90;87.20;;;;;;5024965;28;20481;-68
2022/05/30 12:09:09;;;;;;;1.80;1.70;;;19.20;87.80;;;;;;5018685;28;20514;-69
2022/05/30 12:11:57;;;;;;;5.70;2.13;;;18.70;86.40;;;;;;5027516;28;20581;-69
2022/05/30 12:14:39;;;;;;;1.60;1.50;;;19.20;85.00;;;;;;5021618;28;20845;-69
2022/05/30 12:17:26;;;;;;;3.50;1.87;;;19.50;84.70;;;;;;5022181;28;20517;-68
2022/05/30 12:25:49;;;;;;;9.70;1.53;;;22.70;71.70;;;;;;5025310;28;20515;-67
2022/05/30 12:28:53;;;;;;;2.33;1.50;;;22.50;71.20;;;;;;5029894;28;20557;-66
2022/05/30 12:31:40;;;;;;;4.00;1.43;;;21.80;71.80;;;;;;4980074;28;20473;-67
2022/05/30 12:34:07;;;;;;;4.57;2.97;;;20.90;71.80;;;;;;5027285;28;21271;-68
2022/05/30 12:36:40;;;;;;;1.40;1.20;;;19.70;74.40;;;;;;5023026;28;20461;-68
2022/05/30 12:39:35;;;;;;;3.00;1.50;;;19.60;75.00;;;;;;5021843;28;20832;-68
2022/05/30 12:42:07;;;;;;;3.67;1.20;;;19.60;74.70;;;;;;5026055;28;20461;-68
2022/05/30 12:44:54;;;;;;;2.00;1.50;;;19.90;72.30;;;;;;5022170;28;20452;-68
2022/05/30 12:47:28;;;;;;;6.07;1.97;;;19.80;72.40;;;;;;5023582;28;20466;-67
2022/05/30 12:50:39;;;;;;;1.37;1.10;;;19.70;72.80;;;;;;5019012;28;20781;-67
2022/05/30 12:53:07;;;;;;;1.10;0.80;;;19.70;76.70;;;;;;5018553;28;20815;-68
2022/05/30 12:55:39;;;;;;;2.13;1.37;;;19.90;73.00;;;;;;5027214;28;20461;-69
2022/05/30 12:58:06;;;;;;;1.70;1.00;;;20.40;74.10;;;;;;5027107;28;20456;-69
2022/05/30 13:00:53;;;;;;;1.20;0.80;;;20.20;72.20;;;;;;5025017;28;20488;-69
2022/05/30 13:03:44;;;;;;;1.40;1.00;;;20.00;71.40;;;;;;5030076;28;20463;-69
2022/05/30 13:06:20;;;;;;;1.90;1.20;;;19.90;76.20;;;;;;5027465;28;21008;-68
2022/05/30 13:09:00;;;;;;;2.47;1.30;;;21.60;73.80;;;;;;5025531;28;20571;-67
2022/05/30 13:12:03;;;;;;;4.53;1.30;;;24.30;73.00;;;;;;5028244;28;20516;-68
2022/05/30 13:14:48;;;;;;;5.53;1.50;;;25.60;64.70;;;;;;5025040;28;20506;-67
2022/05/30 13:17:27;;;;;;;2.37;1.50;;;24.80;62.70;;;;;;5026073;28;20456;-67
2022/05/30 13:19:56;;;;;;;2.13;1.30;;;22.50;65.50;;;;;;5028090;28;21004;-68
2022/05/30 13:22:29;;;;;;;2.90;1.40;;;21.30;71.50;;;;;;5030310;28;20472;-68
2022/05/30 13:24:56;;;;;;;4.70;1.47;;;20.80;69.90;;;;;;5025471;28;20464;-67
2022/05/30 13:27:25;;;;;;;2.10;1.20;;;20.00;71.40;;;;;;5025752;28;21126;-68
2022/05/30 13:29:53;;;;;;;1.50;1.07;;;19.60;74.70;;;;;;5030513;28;20511;-68
2022/05/30 13:32:23;;;;;;;1.40;1.10;;;19.30;73.00;;;;;;5022559;28;20468;-68
2022/05/30 13:34:52;;;;;;;9.13;1.30;;;19.00;73.70;;;;;;5025553;28;20456;-67
2022/05/30 13:37:24;;;;;;;2.13;1.23;;;18.90;76.50;;;;;;5025633;28;20465;-66